Time;durP1;ratioP1;P1;durP2;ratioP2;P2;SDS_P1;SDS_P2;PMS_P1;PMS_P2;Temp;Humidity;BMP_temperature;BMP_pressure;BME280_temperature;BME280_humidity;BME280_pressure;Samples;Min_cycle;Max_cycle;Signal;HPM_P1;HPM_P2
2021/08/10 00:01:18;;;;;;;;;;;;;;;-142.75;63.92;76737.63;5081826;28;20650;-77
2021/08/10 00:03:43;;;;;;;;;;;;;;;-142.75;64.06;76727.78;5080278;28;19928;-78
2021/08/10 00:06:08;;;;;;;;;;;;;;;-142.75;63.94;76721.88;5075419;28;19920;-77
2021/08/10 00:08:34;;;;;;;;;;;;;;;-142.75;63.71;76702.19;5083016;28;20385;-78
2021/08/10 00:10:59;;;;;;;;;;;;;;;-142.75;63.77;76712.03;5071420;28;19969;-77
2021/08/10 00:13:25;;;;;;;;;;;;;;;-142.75;63.96;76710.06;5081422;28;19916;-78
2021/08/10 00:15:50;;;;;;;;;;;;;;;-142.75;63.75;76712.03;5083440;28;19916;-77
2021/08/10 00:18:16;;;;;;;;;;;;;;;-142.75;64.01;76704.16;5082324;28;19917;-77
2021/08/10 00:20:41;;;;;;;;;;;;;;;-142.75;63.99;76706.13;5075323;28;19930;-78
2021/08/10 00:23:07;;;;;;;;;;;;;;;-142.75;64.11;76704.16;5072848;28;19966;-78
2021/08/10 00:25:33;;;;;;;;;;;;;;;-142.75;64.22;76710.06;5075915;28;19970;-77
2021/08/10 00:27:59;;;;;;;;;;;;;;;-142.75;64.02;76690.38;5081249;28;19974;-77
2021/08/10 00:30:24;;;;;;;;;;;;;;;-142.75;63.95;76704.16;5085136;28;19916;-77
2021/08/10 00:32:50;;;;;;;;;;;;;;;-142.75;63.96;76698.25;5086011;28;19916;-77
2021/08/10 00:35:15;;;;;;;;;;;;;;;-142.75;63.88;76692.34;5081153;28;19984;-77
2021/08/10 00:37:40;;;;;;;;;;;;;;;-142.75;63.68;76700.22;5080098;28;19963;-78
2021/08/10 00:40:06;;;;;;;;;;;;;;;-142.75;63.82;76700.22;5078304;28;19927;-76
2021/08/10 00:42:31;;;;;;;;;;;;;;;-142.75;63.79;76692.34;5083608;28;19923;-77
2021/08/10 00:44:56;;;;;;;;;;;;;;;-142.75;63.77;76694.31;5079842;28;20342;-77
2021/08/10 00:47:22;;;;;;;;;;;;;;;-142.75;63.93;76684.47;5075389;28;19925;-77
2021/08/10 00:49:47;;;;;;;;;;;;;;;-142.75;63.91;76688.41;5077970;28;19917;-77
2021/08/10 00:52:12;;;;;;;;;;;;;;;-142.75;63.89;76700.22;5081025;28;20283;-78
2021/08/10 00:54:37;;;;;;;;;;;;;;;-142.75;63.82;76694.31;5079239;28;19916;-78
2021/08/10 00:57:02;;;;;;;;;;;;;;;-142.75;63.86;76678.56;5092299;28;19923;-76
2021/08/10 00:59:28;;;;;;;;;;;;;;;-142.75;63.92;76690.38;5086489;28;19916;-77
2021/08/10 01:01:53;;;;;;;;;;;;;;;-142.75;64.05;76684.47;5078133;28;19916;-77
2021/08/10 01:04:18;;;;;;;;;;;;;;;-142.75;63.82;76684.47;5080251;28;20444;-77
2021/08/10 01:06:59;;;;;;;;;;;;;;;-142.75;63.98;76706.13;5078955;28;19931;-76
2021/08/10 01:09:32;;;;;;;;;;;;;;;-142.75;64.29;76690.38;5081310;28;19917;-77
2021/08/10 01:12:04;;;;;;;;;;;;;;;-142.75;64.39;76708.09;5083917;28;19916;-77
2021/08/10 01:14:35;;;;;;;;;;;;;;;-142.75;64.50;76686.44;5080612;28;19916;-78
2021/08/10 01:17:04;;;;;;;;;;;;;;;-142.75;64.62;76698.25;5081788;28;19923;-78
2021/08/10 01:19:55;;;;;;;;;;;;;;;-142.75;64.54;76690.38;5076289;28;21921;-77
2021/08/10 01:22:21;;;;;;;;;;;;;;;-142.75;64.35;76700.22;5082611;28;20297;-78
2021/08/10 01:25:01;;;;;;;;;;;;;;;-142.75;64.40;76692.34;5091375;28;19924;-78
2021/08/10 01:27:32;;;;;;;;;;;;;;;-142.75;64.66;76704.16;5080994;28;19923;-77
2021/08/10 01:30:15;;;;;;;;;;;;;;;-142.75;64.65;76688.41;5080869;28;19916;-77
2021/08/10 01:32:42;;;;;;;;;;;;;;;-142.75;64.77;76717.94;5076848;28;19916;-77
2021/08/10 01:35:09;;;;;;;;;;;;;;;-142.75;65.17;76725.81;5086093;28;20014;-77
2021/08/10 01:37:35;;;;;;;;;;;;;;;-142.75;65.36;76743.53;5085156;28;19966;-76
2021/08/10 01:40:03;;;;;;;;;;;;;;;-142.75;65.68;76737.63;5074945;28;20381;-78
2021/08/10 01:42:31;;;;;;;;;;;;;;;-142.75;65.75;76739.59;5087186;28;19920;-77
2021/08/10 01:44:57;;;;;;;;;;;;;;;-142.75;65.86;76751.41;5076583;28;19916;-77
2021/08/10 01:47:23;;;;;;;;;;;;;;;-142.75;65.90;76741.56;5075839;28;19922;-77
2021/08/10 01:49:48;;;;;;;;;;;;;;;-142.75;65.87;76739.59;5080217;28;19920;-78
2021/08/10 01:52:19;;;;;;;;;;;;;;;-142.75;65.50;76696.28;5081875;28;19917;-78
2021/08/10 01:54:44;;;;;;;;;;;;;;;-142.75;64.90;76694.31;5075823;28;20415;-77
2021/08/10 01:57:10;;;;;;;;;;;;;;;-142.75;64.73;76704.16;5083105;28;20003;-78
2021/08/10 01:59:37;;;;;;;;;;;;;;;-142.75;65.03;76715.97;5085234;28;21162;-77
2021/08/10 02:02:02;;;;;;;;;;;;;;;-142.75;65.34;76727.78;5079380;28;19923;-77
2021/08/10 02:04:27;;;;;;;;;;;;;;;-142.75;65.50;76710.06;5081172;28;19916;-77
2021/08/10 02:06:53;;;;;;;;;;;;;;;-142.75;65.58;76715.97;5082840;28;19916;-77
2021/08/10 02:09:19;;;;;;;;;;;;;;;-142.75;65.80;76727.78;5079457;28;19926;-77
2021/08/10 02:11:45;;;;;;;;;;;;;;;-142.75;65.97;76725.81;5083380;28;19920;-77
2021/08/10 02:14:12;;;;;;;;;;;;;;;-142.75;65.88;76723.84;5086467;28;19916;-78
2021/08/10 02:16:38;;;;;;;;;;;;;;;-142.75;65.80;76719.91;5077889;28;20382;-77
2021/08/10 02:19:03;;;;;;;;;;;;;;;-142.75;65.71;76719.91;5085990;28;19916;-77
2021/08/10 02:21:34;;;;;;;;;;;;;;;-142.75;65.50;76729.75;5075743;28;20514;-77
2021/08/10 02:24:01;;;;;;;;;;;;;;;-142.75;65.44;76731.72;5081190;28;19924;-77
2021/08/10 02:26:28;;;;;;;;;;;;;;;-142.75;65.46;76735.66;5072811;28;19923;-78
2021/08/10 02:28:54;;;;;;;;;;;;;;;-142.75;65.53;76747.47;5080563;28;19916;-76
2021/08/10 02:31:20;;;;;;;;;;;;;;;-142.75;65.65;76751.41;5078275;28;20011;-77
2021/08/10 02:33:46;;;;;;;;;;;;;;;-142.75;65.72;76745.50;5089312;28;20266;-77
2021/08/10 02:36:12;;;;;;;;;;;;;;;-142.75;65.80;76759.28;5082470;28;20004;-77
2021/08/10 02:38:40;;;;;;;;;;;;;;;-142.75;65.73;76759.28;5081347;28;19916;-76
2021/08/10 02:41:05;;;;;;;;;;;;;;;-142.75;65.92;76759.28;5075797;28;19923;-77
2021/08/10 02:43:31;;;;;;;;;;;;;;;-142.75;65.94;76755.34;5080350;28;19916;-77
2021/08/10 02:45:56;;;;;;;;;;;;;;;-142.75;65.85;76745.50;5074892;28;19923;-76
2021/08/10 02:48:21;;;;;;;;;;;;;;;-142.75;65.74;76749.44;5076378;28;19924;-77
2021/08/10 02:50:47;;;;;;;;;;;;;;;-142.75;65.85;76755.34;5071485;28;19916;-76
2021/08/10 02:53:13;;;;;;;;;;;;;;;-142.75;66.17;76777.00;5078470;28;19916;-77
2021/08/10 02:55:41;;;;;;;;;;;;;;;-142.75;66.24;76773.06;5073991;28;20404;-78
2021/08/10 02:58:06;;;;;;;;;;;;;;;-142.75;66.40;76778.97;5073823;28;19916;-77
2021/08/10 03:00:35;;;;;;;;;;;;;;;-142.75;66.58;76784.88;5082807;28;20274;-77
2021/08/10 03:03:12;;;;;;;;;;;;;;;-142.75;66.79;76778.97;5074376;28;20271;-76
2021/08/10 03:05:39;;;;;;;;;;;;;;;-142.75;66.92;76780.94;5086325;28;19920;-77
2021/08/10 03:08:07;;;;;;;;;;;;;;;-142.75;66.94;76784.88;5076559;28;20001;-79
2021/08/10 03:10:34;;;;;;;;;;;;;;;-142.75;67.04;76784.88;5081710;28;19916;-78
2021/08/10 03:13:04;;;;;;;;;;;;;;;-142.75;66.95;76792.75;5081032;28;20017;-77
2021/08/10 03:15:31;;;;;;;;;;;;;;;-142.75;67.19;76796.69;5078206;28;19920;-78
2021/08/10 03:17:57;;;;;;;;;;;;;;;-142.75;67.26;76800.63;5077158;28;19922;-77
2021/08/10 03:20:23;;;;;;;;;;;;;;;-142.75;67.39;76806.50;5083039;28;19920;-77
2021/08/10 03:22:49;;;;;;;;;;;;;;;-142.75;67.45;76806.50;5076528;28;20396;-78
2021/08/10 03:25:17;;;;;;;;;;;;;;;-142.75;67.63;76802.56;5073239;28;20336;-77
2021/08/10 03:27:42;;;;;;;;;;;;;;;-142.75;67.69;76800.63;5080228;28;19916;-77
2021/08/10 03:30:08;;;;;;;;;;;;;;;-142.75;67.78;76810.44;5078822;28;19916;-77
2021/08/10 03:32:35;;;;;;;;;;;;;;;-142.75;67.86;76812.41;5074196;28;20047;-76
2021/08/10 03:35:00;;;;;;;;;;;;;;;-142.75;67.89;76810.44;5083174;28;19942;-76
2021/08/10 03:37:26;;;;;;;;;;;;;;;-142.75;68.11;76816.34;5074049;28;19916;-76
2021/08/10 03:39:53;;;;;;;;;;;;;;;-142.75;68.09;76810.44;5075268;28;19929;-77
2021/08/10 03:42:18;;;;;;;;;;;;;;;-142.75;67.90;76806.50;5077446;28;19923;-77
2021/08/10 03:44:45;;;;;;;;;;;;;;;-142.75;67.87;76822.25;5071150;28;22477;-78
2021/08/10 03:47:12;;;;;;;;;;;;;;;-142.75;67.87;76814.38;5072462;28;20019;-77
2021/08/10 03:49:37;;;;;;;;;;;;;;;-142.75;67.84;76830.13;5077121;28;19927;-76
2021/08/10 03:52:03;;;;;;;;;;;;;;;-142.75;67.86;76826.19;5075516;28;20293;-77
2021/08/10 03:54:29;;;;;;;;;;;;;;;-142.75;67.92;76816.34;5072831;28;21621;-78
2021/08/10 03:56:55;;;;;;;;;;;;;;;-142.75;67.74;76812.41;5075100;28;19924;-77
2021/08/10 03:59:21;;;;;;;;;;;;;;;-142.75;67.81;76834.06;5088412;28;19963;-77
2021/08/10 04:01:49;;;;;;;;;;;;;;;-142.75;68.09;76845.88;5074287;28;20012;-76
2021/08/10 04:04:16;;;;;;;;;;;;;;;-142.75;68.37;76838.00;5073913;28;19923;-77
2021/08/10 04:06:43;;;;;;;;;;;;;;;-142.75;68.43;76832.09;5082920;28;19916;-77
2021/08/10 04:09:08;;;;;;;;;;;;;;;-142.75;68.49;76845.88;5078192;28;19943;-77
2021/08/10 04:11:33;;;;;;;;;;;;;;;-142.75;68.44;76834.06;5079726;28;19923;-78
2021/08/10 04:14:00;;;;;;;;;;;;;;;-142.75;68.48;76845.88;5075794;28;20431;-78
2021/08/10 04:16:26;;;;;;;;;;;;;;;-142.75;68.62;76847.84;5080956;28;20020;-77
2021/08/10 04:18:53;;;;;;;;;;;;;;;-142.75;68.86;76836.03;5081094;28;19958;-77
2021/08/10 04:21:24;;;;;;;;;;;;;;;-142.75;68.71;76822.25;5072480;28;19928;-77
2021/08/10 04:23:49;;;;;;;;;;;;;;;-142.75;68.62;76828.16;5078674;28;20408;-76
2021/08/10 04:26:14;;;;;;;;;;;;;;;-142.75;68.72;76818.31;5071542;28;19921;-77
2021/08/10 04:28:40;;;;;;;;;;;;;;;-142.75;68.61;76832.09;5077034;28;19917;-76
2021/08/10 04:31:05;;;;;;;;;;;;;;;-142.75;68.66;76838.00;5100412;22;19985;-79
2021/08/10 04:33:30;;;;;;;;;;;;;;;-142.75;68.83;76849.81;5082965;28;20020;-79
2021/08/10 04:35:55;;;;;;;;;;;;;;;-142.75;69.07;76843.91;5088525;28;19916;-78
2021/08/10 04:38:20;;;;;;;;;;;;;;;-142.75;69.13;76834.06;5090714;28;20356;-77
2021/08/10 04:40:45;;;;;;;;;;;;;;;-142.75;69.20;76853.75;5077243;28;19960;-78
2021/08/10 04:43:11;;;;;;;;;;;;;;;-142.75;69.14;76845.88;5055554;28;19924;-79
2021/08/10 04:45:36;;;;;;;;;;;;;;;-142.75;69.32;76853.75;5065045;28;20320;-78
2021/08/10 04:48:01;;;;;;;;;;;;;;;-142.75;69.46;76853.75;5065199;28;20377;-78
2021/08/10 04:50:26;;;;;;;;;;;;;;;-142.75;69.32;76853.75;5069192;28;19922;-78
2021/08/10 04:52:52;;;;;;;;;;;;;;;-142.75;69.32;76836.03;5065507;28;19917;-78
2021/08/10 04:55:17;;;;;;;;;;;;;;;-142.75;69.28;76839.97;5063014;28;20370;-78
2021/08/10 04:57:42;;;;;;;;;;;;;;;-142.75;69.09;76830.13;5069993;28;19916;-79
2021/08/10 05:00:08;;;;;;;;;;;;;;;-142.75;69.05;76818.31;5066576;28;19991;-78
2021/08/10 05:02:35;;;;;;;;;;;;;;;-142.75;69.25;76818.31;5064370;28;19956;-77
2021/08/10 05:05:00;;;;;;;;;;;;;;;-142.75;69.47;76804.53;5065281;28;19931;-78
2021/08/10 05:07:25;;;;;;;;;;;;;;;-142.75;69.48;76786.84;5069407;28;19916;-79
2021/08/10 05:09:51;;;;;;;;;;;;;;;-142.75;69.26;76780.94;5066863;28;20434;-77
2021/08/10 05:12:16;;;;;;;;;;;;;;;-142.75;69.21;76778.97;5059681;28;19970;-79
2021/08/10 05:14:41;;;;;;;;;;;;;;;-142.75;68.66;76771.09;5065744;28;20030;-79
2021/08/10 05:17:06;;;;;;;;;;;;;;;-142.75;68.52;76767.16;5064975;28;19951;-79
2021/08/10 05:19:31;;;;;;;;;;;;;;;-142.75;68.26;76755.34;5069659;28;19917;-79
2021/08/10 05:21:57;;;;;;;;;;;;;;;-142.75;68.14;76761.25;5072990;28;19987;-79
2021/08/10 05:24:22;;;;;;;;;;;;;;;-142.75;67.80;76747.47;5064944;28;19924;-79
2021/08/10 05:26:47;;;;;;;;;;;;;;;-142.75;67.72;76751.41;5061731;28;20017;-77
2021/08/10 05:29:12;;;;;;;;;;;;;;;-142.75;67.68;76741.56;5067970;28;19920;-78
2021/08/10 05:31:38;;;;;;;;;;;;;;;-142.75;67.39;76727.78;5057831;28;20023;-77
2021/08/10 05:34:03;;;;;;;;;;;;;;;-142.75;67.07;76702.19;5069877;28;19921;-77
2021/08/10 05:36:28;;;;;;;;;;;;;;;-142.75;66.82;76690.38;5064337;28;19923;-76
2021/08/10 05:38:54;;;;;;;;;;;;;;;-142.75;66.45;76652.97;5069958;28;19948;-78
2021/08/10 05:41:20;;;;;;;;;;;;;;;-142.75;65.78;76617.53;5067709;28;19950;-79
2021/08/10 05:43:46;;;;;;;;;;;;;;;-142.75;65.21;76597.84;5065580;28;20450;-76
2021/08/10 05:46:11;;;;;;;;;;;;;;;-142.75;64.42;76595.88;5062968;28;19940;-78
2021/08/10 05:48:36;;;;;;;;;;;;;;;-142.75;64.20;76627.38;5067408;28;19991;-79
2021/08/10 05:51:04;;;;;;;;;;;;;;;-142.75;64.44;76609.66;5065553;28;19948;-78
2021/08/10 05:53:30;;;;;;;;;;;;;;;-142.75;64.35;76576.19;5056173;28;19916;-78
2021/08/10 05:55:56;;;;;;;;;;;;;;;-142.75;64.12;76556.50;5066702;28;19988;-77
2021/08/10 05:58:21;;;;;;;;;;;;;;;-142.75;63.10;76530.91;5065178;28;19917;-78
2021/08/10 06:00:46;;;;;;;;;;;;;;;-142.75;62.26;76511.25;5060189;28;20535;-79
2021/08/10 06:03:11;;;;;;;;;;;;;;;-142.75;62.20;76528.97;5070112;28;19923;-76
2021/08/10 06:05:36;;;;;;;;;;;;;;;-142.75;62.37;76501.41;5069406;28;19962;-78
2021/08/10 06:08:02;;;;;;;;;;;;;;;-142.75;62.20;76501.41;5066396;28;19920;-78
2021/08/10 06:10:28;;;;;;;;;;;;;;;-142.75;61.62;76495.50;5057558;28;19916;-76
2021/08/10 06:12:53;;;;;;;;;;;;;;;-142.75;62.31;76448.25;5069902;28;19916;-78
2021/08/10 06:15:18;;;;;;;;;;;;;;;-142.75;60.72;76406.91;5056416;28;19960;-79
2021/08/10 06:17:43;;;;;;;;;;;;;;;-142.75;59.13;76377.38;5066269;28;19989;-78
2021/08/10 06:20:09;;;;;;;;;;;;;;;-142.75;58.71;76412.81;5070908;28;19973;-77
2021/08/10 06:22:34;;;;;;;;;;;;;;;-142.75;59.31;76428.56;5057038;28;20006;-77
2021/08/10 06:24:59;;;;;;;;;;;;;;;-142.75;59.67;76414.78;5061679;28;20057;-79
2021/08/10 06:27:25;;;;;;;;;;;;;;;-142.75;59.57;76416.75;5059950;28;19923;-79
2021/08/10 06:29:50;;;;;;;;;;;;;;;-142.75;59.87;76379.34;5064915;28;19927;-77
2021/08/10 06:32:16;;;;;;;;;;;;;;;-142.75;59.09;76320.31;5057429;28;20348;-78
2021/08/10 06:34:41;;;;;;;;;;;;;;;-142.75;57.53;76241.56;5055997;28;19917;-78
2021/08/10 06:37:06;;;;;;;;;;;;;;;-142.75;55.55;76265.19;5056324;28;20027;-77
2021/08/10 06:39:31;;;;;;;;;;;;;;;-142.75;56.09;76180.56;5062042;28;19916;-77
2021/08/10 06:41:57;;;;;;;;;;;;;;;-142.75;54.49;76168.75;5072226;28;19991;-78
2021/08/10 06:44:22;;;;;;;;;;;;;;;-142.75;54.83;76158.91;5070888;28;19917;-78
2021/08/10 06:46:47;;;;;;;;;;;;;;;-142.75;54.86;76176.63;5052238;28;20027;-78
2021/08/10 06:49:12;;;;;;;;;;;;;;;-142.75;54.59;76215.97;5065344;28;19917;-78
2021/08/10 06:51:37;;;;;;;;;;;;;;;-142.75;54.78;76166.78;5056737;28;19916;-78
2021/08/10 06:54:03;;;;;;;;;;;;;;;-142.75;53.87;76178.59;5074033;28;19935;-79
2021/08/10 06:56:28;;;;;;;;;;;;;;;-142.75;54.11;76135.28;5070753;28;19977;-79
2021/08/10 06:58:53;;;;;;;;;;;;;;;-142.75;53.75;76032.94;5059536;28;19927;-77
2021/08/10 07:01:18;;;;;;;;;;;;;;;-142.75;51.66;75930.59;5056034;28;19925;-78
2021/08/10 07:03:44;;;;;;;;;;;;;;;-142.75;49.17;75842.03;5055667;28;19917;-78
2021/08/10 07:06:09;;;;;;;;;;;;;;;-142.75;48.21;75794.78;5061593;28;20333;-78
2021/08/10 07:08:35;;;;;;;;;;;;;;;-142.75;47.17;75723.94;5069248;28;19924;-77
2021/08/10 07:11:00;;;;;;;;;;;;;;;-142.75;46.77;75668.84;5058627;28;20409;-77
2021/08/10 07:13:25;;;;;;;;;;;;;;;-142.75;44.67;75607.81;5063410;28;20015;-79
2021/08/10 07:15:52;;;;;;;;;;;;;;;-142.75;45.01;75578.31;5068019;28;19938;-77
2021/08/10 07:18:17;;;;;;;;;;;;;;;-142.75;43.23;75609.78;5060552;28;19916;-78
2021/08/10 07:20:42;;;;;;;;;;;;;;;-142.75;43.82;75643.25;5057634;28;19927;-79
2021/08/10 07:23:07;;;;;;;;;;;;;;;-142.75;45.20;75759.38;5057915;28;20235;-77
2021/08/10 07:25:32;;;;;;;;;;;;;;;-142.75;46.13;75851.88;5053144;28;19921;-76
2021/08/10 07:27:58;;;;;;;;;;;;;;;-142.75;47.54;75786.91;5053165;28;19928;-78
2021/08/10 07:30:23;;;;;;;;;;;;;;;-142.75;46.48;75704.25;5057037;28;20387;-77
2021/08/10 07:32:48;;;;;;;;;;;;;;;-142.75;44.83;75653.09;5052671;28;19917;-77
2021/08/10 07:35:13;;;;;;;;;;;;;;;-142.75;44.65;75633.41;5061405;28;20007;-76
2021/08/10 07:37:39;;;;;;;;;;;;;;;-142.75;44.47;75605.84;5066132;28;19916;-77
2021/08/10 07:40:05;;;;;;;;;;;;;;;-142.75;44.53;75603.88;5058643;28;19931;-78
2021/08/10 07:42:30;;;;;;;;;;;;;;;-142.75;44.10;75641.28;5069370;28;20360;-77
2021/08/10 07:44:55;;;;;;;;;;;;;;;-142.75;44.64;75605.84;5069158;28;19923;-77
2021/08/10 07:47:21;;;;;;;;;;;;;;;-142.75;43.21;75562.56;5070048;28;19920;-77
2021/08/10 07:49:46;;;;;;;;;;;;;;;-142.75;43.11;75584.22;5071515;28;19959;-77
2021/08/10 07:52:11;;;;;;;;;;;;;;;-142.75;42.84;75554.69;5053553;28;19996;-77
2021/08/10 07:54:36;;;;;;;;;;;;;;;-142.75;43.40;75570.44;5049608;28;20298;-76
2021/08/10 07:57:01;;;;;;;;;;;;;;;-142.75;43.41;75586.19;5068797;28;19921;-77
2021/08/10 07:59:27;;;;;;;;;;;;;;;-142.75;43.84;75676.69;5071193;28;19923;-77
2021/08/10 08:01:52;;;;;;;;;;;;;;;-142.75;44.82;75659.00;5072412;28;19920;-77
2021/08/10 08:04:17;;;;;;;;;;;;;;;-142.75;44.16;75601.91;5069136;28;19916;-76
2021/08/10 08:06:42;;;;;;;;;;;;;;;-142.75;43.28;75538.94;5073525;28;20015;-77
2021/08/10 08:09:07;;;;;;;;;;;;;;;-142.75;42.88;75521.22;5074225;28;19927;-76
2021/08/10 08:11:33;;;;;;;;;;;;;;;-142.75;43.37;75556.66;5073448;28;19920;-76
2021/08/10 08:13:58;;;;;;;;;;;;;;;-142.75;43.63;75720.00;5072948;28;19916;-75
2021/08/10 08:16:23;;;;;;;;;;;;;;;-142.75;44.99;75755.44;5074138;28;20389;-77
2021/08/10 08:18:48;;;;;;;;;;;;;;;-142.75;44.64;75806.59;5072750;28;19917;-76
2021/08/10 08:21:13;;;;;;;;;;;;;;;-142.75;45.60;75804.63;5068356;28;19967;-77
2021/08/10 08:23:39;;;;;;;;;;;;;;;-142.75;45.89;75798.72;5065965;28;20314;-77
2021/08/10 08:26:05;;;;;;;;;;;;;;;-142.75;45.95;75796.75;5055787;28;19916;-78
2021/08/10 08:28:31;;;;;;;;;;;;;;;-142.75;45.24;75712.13;5072719;28;20001;-78
2021/08/10 08:30:56;;;;;;;;;;;;;;;-142.75;44.40;75686.53;5073335;28;20362;-78
2021/08/10 08:33:21;;;;;;;;;;;;;;;-142.75;45.05;75731.81;5075057;28;19917;-78
2021/08/10 08:35:46;;;;;;;;;;;;;;;-142.75;45.58;75777.06;5075664;28;20062;-76
2021/08/10 08:38:12;;;;;;;;;;;;;;;-142.75;45.79;75804.63;5074320;28;19934;-78
2021/08/10 08:40:41;;;;;;;;;;;;;;;-142.75;46.39;75891.22;5058685;28;19932;-76
2021/08/10 08:43:06;;;;;;;;;;;;;;;-142.75;46.98;75889.25;5053358;28;20050;-77
2021/08/10 08:45:32;;;;;;;;;;;;;;;-142.75;47.11;75906.97;5067519;28;19920;-78
2021/08/10 08:48:00;;;;;;;;;;;;;;;-142.75;47.96;75944.38;5058009;28;20362;-77
2021/08/10 08:50:26;;;;;;;;;;;;;;;-142.75;48.62;75999.47;5061514;28;19916;-76
2021/08/10 08:52:52;;;;;;;;;;;;;;;-142.75;49.38;76007.34;5066710;28;20378;-77
2021/08/10 08:55:19;;;;;;;;;;;;;;;-142.75;49.78;76011.28;5053663;28;19917;-77
2021/08/10 08:57:44;;;;;;;;;;;;;;;-142.75;50.09;76046.72;5069673;28;19920;-75
2021/08/10 09:00:13;;;;;;;;;;;;;;;-142.75;50.11;76066.41;5068742;28;20313;-78
2021/08/10 09:02:38;;;;;;;;;;;;;;;-142.75;51.10;76082.13;5060510;28;19973;-78
2021/08/10 09:05:05;;;;;;;;;;;;;;;-142.75;51.21;76082.13;5053894;28;20427;-78
2021/08/10 09:07:30;;;;;;;;;;;;;;;-142.75;51.28;76070.34;5062991;28;19952;-78
2021/08/10 09:10:04;;;;;;;;;;;;;;;-142.75;51.08;76072.31;5066215;28;19917;-79
2021/08/10 09:12:39;;;;;;;;;;;;;;;-142.75;51.15;76042.78;5067210;28;20374;-78
2021/08/10 09:15:05;;;;;;;;;;;;;;;-142.75;50.25;75995.53;5054493;28;19917;-78
2021/08/10 09:17:30;;;;;;;;;;;;;;;-142.75;50.54;75877.44;5060558;28;20022;-78
2021/08/10 09:19:58;;;;;;;;;;;;;;;-142.75;48.09;75613.72;5076485;28;19920;-78
2021/08/10 09:22:25;;;;;;;;;;;;;;;-142.75;43.97;75509.44;5065451;28;19917;-76
2021/08/10 09:24:53;;;;;;;;;;;;;;;-142.75;42.60;75509.44;5068565;28;20382;-79
2021/08/10 09:27:21;;;;;;;;;;;;;;;-142.75;42.94;75592.09;5069060;28;19974;-78
2021/08/10 09:29:47;;;;;;;;;;;;;;;-142.75;43.41;75635.38;5062685;28;19923;-77
2021/08/10 09:32:12;;;;;;;;;;;;;;;-142.75;43.91;75714.09;5073209;28;20019;-77
2021/08/10 09:34:37;;;;;;;;;;;;;;;-142.75;44.60;75806.59;5069855;28;19917;-77
2021/08/10 09:37:02;;;;;;;;;;;;;;;-142.75;46.40;75912.88;5067411;28;19969;-78
2021/08/10 09:39:31;;;;;;;;;;;;;;;-142.75;49.11;75985.69;5072878;28;20057;-81
2021/08/10 09:42:04;;;;;;;;;;;;;;;-142.75;50.30;76036.88;5057909;28;19928;-82
2021/08/10 09:44:29;;;;;;;;;;;;;;;-142.75;51.89;76078.19;5068336;28;20338;-80
2021/08/10 09:46:55;;;;;;;;;;;;;;;-142.75;52.03;76129.38;5064429;28;19990;-82
2021/08/10 09:49:20;;;;;;;;;;;;;;;-142.75;52.64;76160.88;5069043;28;19959;-79
2021/08/10 09:51:47;;;;;;;;;;;;;;;-142.75;53.97;76160.88;5061026;28;20398;-78
2021/08/10 09:54:14;;;;;;;;;;;;;;;-142.75;54.32;76168.75;5069454;28;19917;-80
2021/08/10 09:56:39;;;;;;;;;;;;;;;-142.75;54.19;76180.56;5064967;28;19924;-80
2021/08/10 09:59:04;;;;;;;;;;;;;;;-142.75;54.88;76194.34;5057063;28;19917;-81
2021/08/10 10:01:34;;;;;;;;;;;;;;;-142.75;55.07;76196.31;5057680;28;19920;-80
2021/08/10 10:04:13;;;;;;;;;;;;;;;-142.75;54.66;76200.25;5061694;28;19931;-80
2021/08/10 10:06:38;;;;;;;;;;;;;;;-142.75;53.75;76206.13;5060438;28;19920;-80
2021/08/10 10:09:04;;;;;;;;;;;;;;;-142.75;54.83;76184.50;5065015;28;19966;-78
2021/08/10 10:11:31;;;;;;;;;;;;;;;-142.75;54.41;76172.69;5061090;28;19917;-79
2021/08/10 10:13:58;;;;;;;;;;;;;;;-142.75;54.50;76164.81;5065191;28;19916;-80
2021/08/10 10:16:23;;;;;;;;;;;;;;;-142.75;54.70;76149.06;5060309;28;20011;-81
2021/08/10 10:18:49;;;;;;;;;;;;;;;-142.75;54.54;76149.06;5060601;28;20012;-80
2021/08/10 10:21:19;;;;;;;;;;;;;;;-142.75;54.08;76143.16;5060623;28;20340;-77
2021/08/10 10:23:45;;;;;;;;;;;;;;;-142.75;54.26;76145.13;5060658;28;19928;-79
2021/08/10 10:26:11;;;;;;;;;;;;;;;-142.75;53.20;76164.81;5059719;28;20298;-81
2021/08/10 10:28:38;;;;;;;;;;;;;;;-142.75;53.66;76160.88;5062181;28;20012;-80
2021/08/10 10:31:05;;;;;;;;;;;;;;;-142.75;51.57;76143.16;5079664;22;19953;-78
2021/08/10 10:33:40;;;;;;;;;;;;;;;-142.75;51.87;75936.50;5057526;28;20078;-80
2021/08/10 10:36:08;;;;;;;;;;;;;;;-142.75;49.30;75694.41;5059547;28;20111;-80
2021/08/10 10:38:43;;;;;;;;;;;;;;;-142.75;45.34;75495.66;5060448;28;20027;-80
2021/08/10 10:41:11;;;;;;;;;;;;;;;-142.75;43.24;75353.97;5051303;28;20004;-81
2021/08/10 10:43:42;;;;;;;;;;;;;;;-142.75;39.92;75239.81;5039655;28;19917;-78
2021/08/10 10:46:24;;;;;;;;;;;;;;;-142.75;39.17;75361.84;5041132;28;19917;-79
2021/08/10 10:48:49;;;;;;;;;;;;;;;-142.75;41.51;75440.53;5039102;28;20512;-79
2021/08/10 10:51:26;;;;;;;;;;;;;;;-142.75;41.65;75350.03;5038138;28;20011;-80
2021/08/10 10:54:14;;;;;;;;;;;;;;;-142.75;40.12;75308.69;5041817;28;20443;-80
2021/08/10 10:56:40;;;;;;;;;;;;;;;-142.75;39.00;75420.88;5039713;28;20019;-78
2021/08/10 10:59:19;;;;;;;;;;;;;;;-142.75;42.34;75385.44;5041577;28;20414;-79
2021/08/10 11:01:47;;;;;;;;;;;;;;;-142.75;40.41;75245.72;5040577;28;19960;-81
2021/08/10 11:04:17;;;;;;;;;;;;;;;-142.75;39.84;75228.00;5042223;28;19939;-80
2021/08/10 11:06:49;;;;;;;;;;;;;;;-142.75;36.68;75196.53;5041197;28;19920;-80
2021/08/10 11:09:34;;;;;;;;;;;;;;;-142.75;37.69;75133.56;5040647;28;19917;-80
2021/08/10 11:11:59;;;;;;;;;;;;;;;-142.75;37.24;75133.56;5034753;28;19916;-80
2021/08/10 11:14:37;;;;;;;;;;;;;;;-142.75;35.49;75046.97;5039589;28;20278;-81
2021/08/10 11:17:05;;;;;;;;;;;;;;;-142.75;34.78;75080.44;5038487;28;20363;-79
2021/08/10 11:19:33;;;;;;;;;;;;;;;-142.75;36.30;75060.75;5043474;28;19964;-79
2021/08/10 11:22:22;;;;;;;;;;;;;;;-142.75;36.53;75019.44;5037758;28;19967;-81
2021/08/10 11:24:50;;;;;;;;;;;;;;;-142.75;34.19;74991.88;5034336;28;20387;-78
2021/08/10 11:27:28;;;;;;;;;;;;;;;-142.75;34.30;75127.66;5043436;28;19925;-80
2021/08/10 11:29:53;;;;;;;;;;;;;;;-142.75;34.52;75231.94;5038907;28;19916;-79
2021/08/10 11:32:33;;;;;;;;;;;;;;;-142.75;35.33;75365.75;5039307;28;20505;-79
2021/08/10 11:35:18;;;;;;;;;;;;;;;-142.75;37.35;75442.50;5042499;28;19917;-79
2021/08/10 11:37:44;;;;;;;;;;;;;;;-142.75;38.48;75509.44;5042688;28;19921;-79
2021/08/10 11:40:12;;;;;;;;;;;;;;;-142.75;38.64;75420.88;5037295;28;20425;-77
2021/08/10 11:42:37;;;;;;;;;;;;;;;-142.75;37.23;75373.63;5045035;28;19924;-78
2021/08/10 11:45:03;;;;;;;;;;;;;;;-142.75;37.31;75466.13;5051237;28;19917;-78
2021/08/10 11:47:29;;;;;;;;;;;;;;;-142.75;38.23;75468.09;5043228;28;20023;-77
2021/08/10 11:49:54;;;;;;;;;;;;;;;-142.75;38.83;75442.50;5043896;28;20022;-78
2021/08/10 11:52:19;;;;;;;;;;;;;;;-142.75;38.08;75389.38;5042840;28;19923;-78
2021/08/10 11:54:55;;;;;;;;;;;;;;;-142.75;37.24;75383.47;5045487;28;20110;-77
2021/08/10 11:57:20;;;;;;;;;;;;;;;-142.75;38.12;75428.75;5042548;28;20002;-78
2021/08/10 11:59:45;;;;;;;;;;;;;;;-142.75;37.49;75450.38;5047417;28;19963;-78
2021/08/10 12:02:10;;;;;;;;;;;;;;;-142.75;38.41;75460.22;5041051;28;20286;-79
2021/08/10 12:04:37;;;;;;;;;;;;;;;-142.75;39.26;75495.66;5048125;28;19925;-77
2021/08/10 12:07:05;;;;;;;;;;;;;;;-142.75;38.43;75519.25;5039657;28;19916;-78
2021/08/10 12:09:43;;;;;;;;;;;;;;;-142.75;39.64;75556.66;5045158;28;19916;-78
2021/08/10 12:12:11;;;;;;;;;;;;;;;-142.75;38.51;75590.13;5047740;28;19924;-78
2021/08/10 12:14:36;;;;;;;;;;;;;;;-142.75;40.35;75586.19;5045298;28;19999;-78
2021/08/10 12:17:04;;;;;;;;;;;;;;;-142.75;40.56;75597.97;5044340;28;20007;-78
2021/08/10 12:19:43;;;;;;;;;;;;;;;-142.75;40.75;75599.94;5046077;28;19923;-79
2021/08/10 12:22:09;;;;;;;;;;;;;;;-142.75;39.58;75599.94;5046259;28;19921;-79
2021/08/10 12:24:38;;;;;;;;;;;;;;;-142.75;39.10;75629.47;5039528;28;19921;-78
2021/08/10 12:27:04;;;;;;;;;;;;;;;-142.75;40.28;75657.03;5045217;28;19971;-78